KSNL/SNL METAR and TAF weather

Enter ICAO airport designator
Station Type Date Time Source
KSNL METAR 2019/07/18 10:55 UTC NOAA

KSNL 181055Z AUTO 18008KT 10SM CLR 25/22 A2994 RMK AO2 T02520222


Station Type Date Time Source
KSNL Decoded METAR 2019/07/18 10:55 UTC NOAA

Shawnee, Shawnee Municipal Airport, OK, United States (KSNL) 35-21-26N 096-56-34W
Jul 18, 2019 - 06:55 AM EDT / 2019.07.18 1055 UTC
Wind: from the S (180 degrees) at 9 MPH (8 KT):0
Visibility: 10 mile(s):0
Sky conditions: clear
Temperature: 77.4 F (25.2 C)
Dew Point: 72.0 F (22.2 C)
Relative Humidity: 83%
Pressure (altimeter): 29.94 in. Hg (1013 hPa)
ob: KSNL 181055Z AUTO 18008KT 10SM CLR 25/22 A2994 RMK AO2 T02520222
cycle: 11

Station Type Date Time Source
KSNL TAF UTC NOAA

Error!

Example: see airport list